Terminal Aerodrome Forecast
Issued by NWS Springfield, MO

Home | Current Version | Previous Version | Text Only | Print | Product List | Glossary On
Versions: 1 2 3 4 5 6 7 8 9 10 11 12 13 14 15 16
000
FTUS43 KSGF 180500
TAFSGF
TAF
KSGF 180520Z 1806/1906 03006KT P6SM OVC080
     FM181000 06003KT 4SM BR SCT080
     FM181300 08006KT P6SM SCT045
     FM190100 12005KT P6SM SKC=

USA.gov is the U.S. government's official web portal to all federal, state and local government web resources and services.